Time,TemperatureF,DewpointF,PressureIn,WindDirection,WindDirectionDegrees,WindSpeedMPH,WindSpeedGustMPH,Humidity,HourlyPrecipIn,Conditions,Clouds,dailyrainin,SoftwareType,DateUTC
2013-05-22 00:10:00,69.8,69.5,29.83,ESE,112,0.0,-999.0,99,-99.99,,,0.00,Acu-Link.com,2013-05-22 04:10:00,
2013-05-22 00:25:00,69.4,69.1,29.82,ESE,112,0.0,-999.0,99,-99.99,,,0.00,Acu-Link.com,2013-05-22 04:25:00,
2013-05-22 00:40:00,69.3,69.0,29.82,ESE,112,0.0,-999.0,99,-99.99,,,0.00,Acu-Link.com,2013-05-22 04:40:00,
2013-05-22 00:55:00,69.1,68.8,29.81,ESE,112,0.0,-999.0,99,-99.99,,,0.00,Acu-Link.com,2013-05-22 04:55:00,
2013-05-22 01:11:00,68.7,68.4,29.82,ESE,112,0.0,-999.0,99,-99.99,,,0.00,Acu-Link.com,2013-05-22 05:11:00,
2013-05-22 01:26:00,68.5,68.2,29.81,ESE,112,0.0,-999.0,99,-99.99,,,0.00,Acu-Link.com,2013-05-22 05:26:00,
2013-05-22 01:41:00,68.0,67.7,29.81,SSE,157,0.0,-999.0,99,-99.99,,,0.00,Acu-Link.com,2013-05-22 05:41:00,
2013-05-22 01:56:00,67.6,67.3,29.81,WNW,292,0.0,-999.0,99,-99.99,,,0.00,Acu-Link.com,2013-05-22 05:56:00,
2013-05-22 02:11:00,67.6,67.3,29.80,WNW,292,0.0,-999.0,99,-99.99,,,0.00,Acu-Link.com,2013-05-22 06:11:00,
2013-05-22 02:27:00,67.5,67.2,29.80,South,180,0.0,-999.0,99,-99.99,,,0.00,Acu-Link.com,2013-05-22 06:27:00,
2013-05-22 02:42:00,67.3,67.0,29.80,South,180,0.0,-999.0,99,-99.99,,,0.00,Acu-Link.com,2013-05-22 06:42:00,
2013-05-22 02:57:00,67.1,66.8,29.80,South,180,0.0,-999.0,99,-99.99,,,0.00,Acu-Link.com,2013-05-22 06:57:00,
2013-05-22 03:12:00,66.9,66.6,29.80,South,180,0.0,-999.0,99,-99.99,,,0.00,Acu-Link.com,2013-05-22 07:12:00,
2013-05-22 03:28:00,66.7,66.4,29.79,South,180,0.0,-999.0,99,-99.99,,,0.00,Acu-Link.com,2013-05-22 07:28:00,
2013-05-22 03:43:00,66.4,66.1,29.79,South,180,0.0,-999.0,99,-99.99,,,0.00,Acu-Link.com,2013-05-22 07:43:00,
2013-05-22 03:58:00,66.2,65.9,29.79,South,180,0.0,-999.0,99,-99.99,,,0.00,Acu-Link.com,2013-05-22 07:58:00,
2013-05-22 04:16:00,66.0,65.7,29.79,South,180,0.0,-999.0,99,-99.99,,,0.00,Acu-Link.com,2013-05-22 08:16:00,
2013-05-22 04:32:00,66.0,65.7,29.79,South,180,0.0,-999.0,99,-99.99,,,0.00,Acu-Link.com,2013-05-22 08:32:00,
2013-05-22 04:47:00,65.8,65.6,29.79,South,180,0.0,-999.0,99,-99.99,,,0.00,Acu-Link.com,2013-05-22 08:47:00,
2013-05-22 05:02:00,65.7,65.4,29.79,South,180,0.0,-999.0,99,-99.99,,,0.00,Acu-Link.com,2013-05-22 09:02:00,
2013-05-22 05:17:00,65.5,65.2,29.80,South,180,0.0,-999.0,99,-99.99,,,0.00,Acu-Link.com,2013-05-22 09:17:00,
2013-05-22 05:32:00,65.5,65.2,29.79,South,180,0.0,-999.0,99,-99.99,,,0.00,Acu-Link.com,2013-05-22 09:32:00,
2013-05-22 05:47:00,65.3,65.0,29.80,South,180,0.0,-999.0,99,-99.99,,,0.00,Acu-Link.com,2013-05-22 09:47:00,
2013-05-22 06:02:00,65.1,64.8,29.80,South,180,0.0,-999.0,99,-99.99,,,0.00,Acu-Link.com,2013-05-22 10:02:00,
2013-05-22 06:18:00,64.9,64.7,29.80,South,180,0.0,-999.0,99,-99.99,,,0.00,Acu-Link.com,2013-05-22 10:18:00,
2013-05-22 06:33:00,64.9,64.7,29.80,South,180,0.0,-999.0,99,-99.99,,,0.00,Acu-Link.com,2013-05-22 10:33:00,
2013-05-22 06:48:00,64.9,64.7,29.80,ENE,67,0.0,-999.0,99,-99.99,,,0.00,Acu-Link.com,2013-05-22 10:48:00,
2013-05-22 07:03:00,65.1,64.8,29.81,WNW,292,0.0,-999.0,99,-99.99,,,0.00,Acu-Link.com,2013-05-22 11:03:00,
2013-05-22 07:19:00,65.8,65.6,29.82,ESE,112,0.0,-999.0,99,-99.99,,,0.00,Acu-Link.com,2013-05-22 11:19:00,
2013-05-22 07:34:00,67.5,67.2,29.82,SSW,202,0.0,-999.0,99,-99.99,,,0.00,Acu-Link.com,2013-05-22 11:34:00,
2013-05-22 07:49:00,70.5,69.6,29.82,WSW,247,0.0,-999.0,97,-99.99,,,0.00,Acu-Link.com,2013-05-22 11:49:00,
2013-05-22 08:04:00,72.3,69.9,29.81,SSE,157,0.0,-999.0,92,-99.99,,,0.00,Acu-Link.com,2013-05-22 12:04:00,
2013-05-22 08:20:00,73.6,71.7,29.82,NNE,22,1.1,-999.0,94,-99.99,,,0.00,Acu-Link.com,2013-05-22 12:20:00,
2013-05-22 08:35:00,75.0,72.5,29.82,SSE,157,1.6,-999.0,92,-99.99,,,0.00,Acu-Link.com,2013-05-22 12:35:00,
2013-05-22 08:50:00,76.5,73.0,29.83,East,90,0.0,-999.0,89,-99.99,,,0.00,Acu-Link.com,2013-05-22 12:50:00,
2013-05-22 09:05:00,77.4,73.5,29.83,ESE,112,0.0,-999.0,88,-99.99,,,0.00,Acu-Link.com,2013-05-22 13:05:00,
2013-05-22 09:21:00,77.7,72.5,29.83,NW,315,2.2,-999.0,84,-99.99,,,0.00,Acu-Link.com,2013-05-22 13:21:00,
2013-05-22 09:36:00,76.8,71.6,29.83,SSE,157,1.6,-999.0,84,-99.99,,,0.00,Acu-Link.com,2013-05-22 13:36:00,
2013-05-22 09:51:00,77.4,72.1,29.83,ESE,112,0.0,-999.0,84,-99.99,,,0.00,Acu-Link.com,2013-05-22 13:51:00,
2013-05-22 10:06:00,79.5,73.5,29.83,SSE,157,1.1,-999.0,82,-99.99,,,0.00,Acu-Link.com,2013-05-22 14:06:00,
2013-05-22 10:21:00,79.0,71.1,29.83,SSW,202,0.0,-999.0,77,-99.99,,,0.00,Acu-Link.com,2013-05-22 14:21:00,
2013-05-22 10:37:00,79.2,72.1,29.82,NNW,337,0.0,-999.0,79,-99.99,,,0.00,Acu-Link.com,2013-05-22 14:37:00,
2013-05-22 10:52:00,80.1,72.2,29.83,North,0,0.0,-999.0,77,-99.99,,,0.00,Acu-Link.com,2013-05-22 14:52:00,
2013-05-22 11:07:00,79.3,71.5,29.83,NNE,22,1.6,-999.0,77,-99.99,,,0.00,Acu-Link.com,2013-05-22 15:07:00,
2013-05-22 11:22:00,81.7,73.7,29.84,ESE,112,2.2,-999.0,77,-99.99,,,0.00,Acu-Link.com,2013-05-22 15:22:00,
2013-05-22 11:38:00,82.9,73.4,29.83,ESE,112,1.6,-999.0,73,-99.99,,,0.00,Acu-Link.com,2013-05-22 15:38:00,
2013-05-22 11:53:00,82.2,74.3,29.84,SSE,157,0.0,-999.0,77,-99.99,,,0.00,Acu-Link.com,2013-05-22 15:53:00,
2013-05-22 12:08:00,81.1,72.4,29.83,NE,45,0.0,-999.0,75,-99.99,,,0.00,Acu-Link.com,2013-05-22 16:08:00,
2013-05-22 12:24:00,80.8,72.9,29.83,ESE,112,0.0,-999.0,77,-99.99,,,0.00,Acu-Link.com,2013-05-22 16:24:00,
2013-05-22 12:39:00,79.7,71.4,29.83,SE,135,1.1,-999.0,76,-99.99,,,0.00,Acu-Link.com,2013-05-22 16:39:00,
2013-05-22 12:54:00,80.8,72.1,29.83,East,90,2.7,-999.0,75,-99.99,,,0.00,Acu-Link.com,2013-05-22 16:54:00,
2013-05-22 13:09:00,81.5,71.2,29.82,NE,45,0.0,-999.0,71,-99.99,,,0.00,Acu-Link.com,2013-05-22 17:09:00,
2013-05-22 13:24:00,81.9,71.1,29.82,ESE,112,0.0,-999.0,70,-99.99,,,0.00,Acu-Link.com,2013-05-22 17:24:00,
2013-05-22 13:40:00,81.3,70.6,29.82,SE,135,2.2,-999.0,70,-99.99,,,0.00,Acu-Link.com,2013-05-22 17:40:00,
2013-05-22 13:55:00,81.0,71.9,29.82,SSE,157,0.0,-999.0,74,-99.99,,,0.00,Acu-Link.com,2013-05-22 17:55:00,
2013-05-22 14:10:00,80.6,72.7,29.81,SSW,202,0.0,-999.0,77,-99.99,,,0.00,Acu-Link.com,2013-05-22 18:10:00,
2013-05-22 14:26:00,79.9,72.8,29.81,NNW,337,0.0,-999.0,79,-99.99,,,0.00,Acu-Link.com,2013-05-22 18:26:00,
2013-05-22 14:41:00,80.6,73.8,29.81,ENE,67,0.0,-999.0,80,-99.99,,,0.00,Acu-Link.com,2013-05-22 18:41:00,
2013-05-22 14:56:00,82.2,75.0,29.81,West,270,1.6,-999.0,79,-99.99,,,0.00,Acu-Link.com,2013-05-22 18:56:00,
2013-05-22 15:12:00,82.2,72.3,29.80,SSE,157,3.8,-999.0,72,-99.99,,,0.00,Acu-Link.com,2013-05-22 19:12:00,
2013-05-22 15:27:00,82.6,71.8,29.80,ENE,67,3.8,-999.0,70,-99.99,,,0.00,Acu-Link.com,2013-05-22 19:27:00,
2013-05-22 15:42:00,82.4,71.2,29.79,SSE,157,3.1,-999.0,69,-99.99,,,0.00,Acu-Link.com,2013-05-22 19:42:00,
2013-05-22 15:57:00,81.5,71.6,29.79,South,180,4.7,-999.0,72,-99.99,,,0.00,Acu-Link.com,2013-05-22 19:57:00,
2013-05-22 16:13:00,85.3,72.2,29.79,SE,135,2.7,-999.0,65,-99.99,,,0.00,Acu-Link.com,2013-05-22 20:13:00,
2013-05-22 16:28:00,86.0,71.9,29.78,SSE,157,2.2,-999.0,63,-99.99,,,0.00,Acu-Link.com,2013-05-22 20:28:00,
2013-05-22 16:43:00,86.9,71.8,29.77,SSE,157,2.2,-999.0,61,-99.99,,,0.00,Acu-Link.com,2013-05-22 20:43:00,
2013-05-22 16:59:00,83.1,70.1,29.77,ESE,112,2.2,-999.0,65,-99.99,,,0.00,Acu-Link.com,2013-05-22 20:59:00,
2013-05-22 17:14:00,81.9,69.8,29.76,South,180,2.2,-999.0,67,-99.99,,,0.00,Acu-Link.com,2013-05-22 21:14:00,
2013-05-22 17:29:00,83.7,71.1,29.76,East,90,2.2,-999.0,66,-99.99,,,0.00,Acu-Link.com,2013-05-22 21:29:00,
2013-05-22 17:45:00,84.6,70.5,29.76,East,90,4.3,-999.0,63,-99.99,,,0.00,Acu-Link.com,2013-05-22 21:45:00,
2013-05-22 18:00:00,81.7,71.8,29.76,ESE,112,2.2,-999.0,72,-99.99,,,0.00,Acu-Link.com,2013-05-22 22:00:00,
2013-05-22 18:15:00,81.7,72.2,29.77,South,180,2.7,-999.0,73,-99.99,,,0.00,Acu-Link.com,2013-05-22 22:15:00,
2013-05-22 18:30:00,81.0,71.9,29.77,SE,135,5.1,-999.0,74,-99.99,,,0.00,Acu-Link.com,2013-05-22 22:30:00,
2013-05-22 18:46:00,79.5,71.7,29.76,SW,225,2.7,-999.0,77,-99.99,,,0.00,Acu-Link.com,2013-05-22 22:46:00,
2013-05-22 19:01:00,79.5,71.7,29.76,SE,135,1.1,-999.0,77,-99.99,,,0.00,Acu-Link.com,2013-05-22 23:01:00,
2013-05-22 19:16:00,79.0,71.9,29.76,ESE,112,1.6,-999.0,79,-99.99,,,0.00,Acu-Link.com,2013-05-22 23:16:00,
2013-05-22 19:32:00,78.4,71.4,29.76,ESE,112,2.2,-999.0,79,-99.99,,,0.00,Acu-Link.com,2013-05-22 23:32:00,
2013-05-22 19:47:00,77.4,71.1,29.77,SSE,157,1.6,-999.0,81,-99.99,,,0.00,Acu-Link.com,2013-05-22 23:47:00,
2013-05-22 20:02:00,76.6,71.1,29.77,SE,135,1.6,-999.0,83,-99.99,,,0.00,Acu-Link.com,2013-05-23 00:02:00,
2013-05-22 20:18:00,76.3,71.1,29.77,SE,135,1.1,-999.0,84,-99.99,,,0.00,Acu-Link.com,2013-05-23 00:18:00,
2013-05-22 20:33:00,75.7,70.9,29.77,SSE,157,1.6,-999.0,85,-99.99,,,0.00,Acu-Link.com,2013-05-23 00:33:00,
2013-05-22 20:48:00,75.4,70.9,29.77,West,270,0.0,-999.0,86,-99.99,,,0.00,Acu-Link.com,2013-05-23 00:48:00,
2013-05-22 21:03:00,74.3,70.8,29.78,East,90,0.0,-999.0,89,-99.99,,,0.00,Acu-Link.com,2013-05-23 01:03:00,
2013-05-22 21:19:00,73.9,70.8,29.78,ESE,112,0.0,-999.0,90,-99.99,,,0.00,Acu-Link.com,2013-05-23 01:19:00,
2013-05-22 21:34:00,73.2,70.4,29.78,ESE,112,0.0,-999.0,91,-99.99,,,0.00,Acu-Link.com,2013-05-23 01:34:00,
2013-05-22 21:49:00,72.7,70.2,29.78,ESE,112,0.0,-999.0,92,-99.99,,,0.00,Acu-Link.com,2013-05-23 01:49:00,
2013-05-22 22:05:00,72.1,70.3,29.79,SSE,157,0.0,-999.0,94,-99.99,,,0.00,Acu-Link.com,2013-05-23 02:05:00,
2013-05-22 22:20:00,71.6,70.1,29.79,SSE,157,0.0,-999.0,95,-99.99,,,0.00,Acu-Link.com,2013-05-23 02:20:00,
2013-05-22 22:35:00,71.4,69.9,29.79,ESE,112,0.0,-999.0,95,-99.99,,,0.00,Acu-Link.com,2013-05-23 02:35:00,
2013-05-22 22:51:00,71.2,69.7,29.80,SSE,157,0.0,-999.0,95,-99.99,,,0.00,Acu-Link.com,2013-05-23 02:51:00,
2013-05-22 23:06:00,70.9,69.4,29.80,ESE,112,0.0,-999.0,95,-99.99,,,0.00,Acu-Link.com,2013-05-23 03:06:00,
2013-05-22 23:21:00,70.7,69.5,29.80,SE,135,0.0,-999.0,96,-99.99,,,0.00,Acu-Link.com,2013-05-23 03:21:00,
2013-05-22 23:36:00,70.3,69.1,29.80,ESE,112,0.0,-999.0,96,-99.99,,,0.00,Acu-Link.com,2013-05-23 03:36:00,
2013-05-22 23:51:00,70.2,69.3,29.79,ESE,112,0.0,-999.0,97,-99.99,,,0.00,Acu-Link.com,2013-05-23 03:51:00,